Time;durP1;ratioP1;P1;durP2;ratioP2;P2;SDS_P1;SDS_P2;PMS_P1;PMS_P2;Temp;Humidity;BMP_temperature;BMP_pressure;BME280_temperature;BME280_humidity;BME280_pressure;Samples;Min_cycle;Max_cycle;Signal;HPM_P1;HPM_P2
2023/04/05 03:02:40;;;;;;;12.47;11.37;;;-2.00;99.90;;;;;;4892492;29;20219;-77
2023/04/05 03:05:06;;;;;;;12.67;11.67;;;-2.00;99.90;;;;;;4896807;29;20184;-77
2023/04/05 03:07:32;;;;;;;12.63;11.50;;;-2.00;99.90;;;;;;4896677;29;20223;-74
2023/04/05 03:09:58;;;;;;;11.70;10.60;;;-2.10;99.90;;;;;;4897605;29;20188;-76
2023/04/05 03:12:24;;;;;;;12.47;11.33;;;-2.10;99.90;;;;;;4880988;29;20195;-75
2023/04/05 03:14:50;;;;;;;13.33;11.13;;;-2.10;99.90;;;;;;4880764;29;20220;-77
2023/04/05 03:17:15;;;;;;;12.47;11.43;;;-2.20;99.90;;;;;;4880685;29;20210;-77
2023/04/05 03:19:41;;;;;;;12.37;11.27;;;-2.20;99.90;;;;;;4897103;29;20271;-76
2023/04/05 03:22:07;;;;;;;12.50;11.30;;;-2.30;99.90;;;;;;4898666;29;20351;-75
2023/04/05 03:24:33;;;;;;;12.87;11.63;;;-2.40;99.90;;;;;;4880948;29;20622;-76
2023/04/05 03:27:04;;;;;;;12.90;11.60;;;-2.50;99.90;;;;;;4881049;29;20578;-76
2023/04/05 03:29:30;;;;;;;12.23;11.17;;;-2.40;99.90;;;;;;4881485;29;20184;-77
2023/04/05 03:31:59;;;;;;;12.10;11.07;;;-2.30;99.90;;;;;;4898303;29;20262;-77
2023/04/05 03:34:28;;;;;;;12.07;10.97;;;-2.20;99.90;;;;;;4880934;29;20187;-77
2023/04/05 03:36:54;;;;;;;12.70;11.63;;;-2.20;99.90;;;;;;4883973;29;20187;-76
2023/04/05 03:39:20;;;;;;;12.30;11.00;;;-2.10;99.90;;;;;;4883112;29;20188;-78
2023/04/05 03:41:46;;;;;;;12.10;10.97;;;-2.10;99.90;;;;;;4882061;29;20255;-77
2023/04/05 03:44:12;;;;;;;12.67;11.47;;;-2.20;99.90;;;;;;4881824;29;20691;-76
2023/04/05 03:46:37;;;;;;;14.07;12.53;;;-2.20;99.90;;;;;;4879943;29;20204;-77
2023/04/05 03:49:03;;;;;;;13.70;12.37;;;-2.20;99.90;;;;;;4897143;29;20188;-75
2023/04/05 03:51:30;;;;;;;12.77;11.57;;;-2.20;99.90;;;;;;4879922;29;20302;-76
2023/04/05 03:53:55;;;;;;;13.30;11.90;;;-2.20;99.90;;;;;;4880898;29;20198;-77
2023/04/05 03:56:21;;;;;;;13.77;12.17;;;-2.20;99.90;;;;;;4896671;29;20176;-76
2023/04/05 03:58:47;;;;;;;13.53;12.07;;;-2.20;99.90;;;;;;4879794;29;20219;-76
2023/04/05 04:01:14;;;;;;;13.40;11.60;;;-2.30;99.90;;;;;;4880086;29;20227;-76
2023/04/05 04:03:40;;;;;;;16.13;12.50;;;-2.30;99.90;;;;;;4880710;29;20195;-77
2023/04/05 04:06:06;;;;;;;12.90;11.70;;;-2.30;99.90;;;;;;4897447;29;20252;-77
2023/04/05 04:08:33;;;;;;;13.20;11.60;;;-2.30;99.90;;;;;;4880390;29;20215;-77
2023/04/05 04:10:59;;;;;;;12.30;11.13;;;-2.40;99.90;;;;;;4880237;29;20575;-77
2023/04/05 04:13:25;;;;;;;11.93;10.60;;;-2.40;99.90;;;;;;4897063;29;20184;-77
2023/04/05 04:15:51;;;;;;;11.87;10.60;;;-2.40;99.90;;;;;;4897106;29;20187;-76
2023/04/05 04:18:16;;;;;;;13.60;12.30;;;-2.50;99.90;;;;;;4877699;29;20231;-78
2023/04/05 04:20:43;;;;;;;13.40;12.10;;;-2.50;99.90;;;;;;4873271;29;20240;-77
2023/04/05 04:23:09;;;;;;;13.70;12.60;;;-2.50;99.90;;;;;;4877914;29;20280;-78
2023/04/05 04:25:35;;;;;;;37.80;34.93;;;-2.60;99.90;;;;;;4897426;29;20214;-72
2023/04/05 04:28:05;;;;;;;13.17;11.87;;;-2.60;99.90;;;;;;4898001;29;20304;-72
2023/04/05 04:30:33;;;;;;;14.67;13.37;;;-2.70;99.90;;;;;;4914900;29;20183;-73
2023/04/05 04:33:02;;;;;;;14.30;12.80;;;-2.80;99.90;;;;;;4915204;29;20264;-72
2023/04/05 04:35:29;;;;;;;18.63;11.40;;;-2.80;99.90;;;;;;4915237;29;20663;-72
2023/04/05 04:37:56;;;;;;;14.60;12.17;;;-2.80;99.90;;;;;;4903929;29;20284;-72
2023/04/05 04:40:28;;;;;;;14.87;12.60;;;-2.80;99.90;;;;;;4895980;29;20188;-72
2023/04/05 04:43:00;;;;;;;16.43;13.67;;;-2.90;99.90;;;;;;4896907;29;20788;-73
2023/04/05 04:45:26;;;;;;;13.20;11.60;;;-2.90;99.90;;;;;;4879867;29;20191;-73
2023/04/05 04:47:52;;;;;;;22.23;13.93;;;-3.00;99.90;;;;;;4896153;29;20219;-72
2023/04/05 04:50:19;;;;;;;15.37;13.80;;;-3.00;99.90;;;;;;4895895;29;20191;-71
2023/04/05 04:52:46;;;;;;;15.20;13.67;;;-3.00;99.90;;;;;;4879591;29;20580;-72
2023/04/05 04:55:15;;;;;;;15.10;13.50;;;-3.00;99.90;;;;;;4895957;29;20211;-72
2023/04/05 04:57:41;;;;;;;16.83;13.90;;;-3.00;99.90;;;;;;4879315;29;20188;-72
2023/04/05 05:00:12;;;;;;;16.17;13.70;;;-2.90;99.90;;;;;;4895708;29;20671;-71
2023/04/05 05:02:39;;;;;;;14.97;13.37;;;-2.80;99.90;;;;;;4894009;29;20209;-72
2023/04/05 05:05:06;;;;;;;13.87;12.60;;;-2.90;99.90;;;;;;4895745;29;20206;-72
2023/04/05 05:07:32;;;;;;;15.27;13.73;;;-2.90;99.90;;;;;;4879037;29;20586;-72
2023/04/05 05:09:58;;;;;;;13.80;12.63;;;-2.80;99.90;;;;;;4894694;29;20327;-72
2023/04/05 05:12:25;;;;;;;15.43;14.00;;;-2.80;99.90;;;;;;4895224;29;20691;-72
2023/04/05 05:14:51;;;;;;;14.43;13.10;;;-2.70;99.90;;;;;;4881995;29;20179;-72
2023/04/05 05:17:17;;;;;;;15.30;13.90;;;-2.60;99.90;;;;;;4902432;29;20215;-72
2023/04/05 05:19:44;;;;;;;12.90;11.03;;;-2.50;99.90;;;;;;4878418;29;20196;-71
2023/04/05 05:22:10;;;;;;;14.50;12.97;;;-2.30;99.90;;;;;;4877181;29;20215;-71
2023/04/05 05:24:36;;;;;;;14.23;12.67;;;-2.10;99.90;;;;;;4908644;29;20691;-71
2023/04/05 05:27:02;;;;;;;14.73;13.43;;;-1.80;99.90;;;;;;4917055;29;20223;-71
2023/04/05 05:29:27;;;;;;;23.37;12.30;;;-1.40;99.90;;;;;;4917273;29;20279;-71
2023/04/05 05:31:54;;;;;;;16.83;14.63;;;-1.20;99.90;;;;;;4918510;29;20237;-72
2023/04/05 05:34:20;;;;;;;17.27;15.50;;;-1.20;99.90;;;;;;4917415;29;20183;-72
2023/04/05 05:36:46;;;;;;;15.20;13.70;;;-1.00;99.90;;;;;;4902126;29;20263;-71
2023/04/05 05:39:12;;;;;;;13.57;11.93;;;-0.80;99.90;;;;;;4898073;29;20203;-71
2023/04/05 05:41:38;;;;;;;13.70;12.13;;;-0.50;99.90;;;;;;4901453;29;20210;-72
2023/04/05 05:44:05;;;;;;;15.50;11.70;;;-0.10;99.90;;;;;;4901440;29;20180;-72
2023/04/05 05:46:31;;;;;;;15.70;11.77;;;0.30;99.90;;;;;;4899101;29;20188;-72
2023/04/05 05:48:56;;;;;;;14.73;11.77;;;0.60;99.90;;;;;;4882289;29;20309;-71
2023/04/05 05:51:22;;;;;;;14.67;10.53;;;1.00;99.90;;;;;;4898239;29;20207;-71
2023/04/05 05:53:48;;;;;;;13.90;12.17;;;1.40;99.90;;;;;;4897924;29;20187;-71
2023/04/05 05:56:14;;;;;;;15.10;11.23;;;1.80;99.90;;;;;;4898214;29;20184;-71
2023/04/05 05:58:39;;;;;;;11.80;10.60;;;2.10;99.90;;;;;;4898899;29;20503;-71
2023/04/05 06:01:06;;;;;;;13.50;12.00;;;2.20;99.90;;;;;;4897451;29;20598;-71
2023/04/05 06:03:32;;;;;;;14.17;12.10;;;2.60;99.90;;;;;;4899142;29;20613;-71
2023/04/05 06:05:59;;;;;;;20.03;14.83;;;2.60;99.90;;;;;;4899094;29;20195;-71
2023/04/05 06:08:26;;;;;;;18.13;14.60;;;2.30;99.90;;;;;;4881089;29;20672;-71
2023/04/05 06:10:52;;;;;;;22.20;15.50;;;2.00;99.90;;;;;;4897692;29;20232;-72
2023/04/05 06:13:19;;;;;;;17.77;15.47;;;1.90;99.90;;;;;;4898509;29;20557;-71
2023/04/05 06:15:46;;;;;;;17.37;13.97;;;2.30;99.90;;;;;;4917484;29;20183;-71
2023/04/05 06:18:12;;;;;;;15.23;13.23;;;2.80;99.90;;;;;;4917487;29;20214;-71
2023/04/05 06:20:39;;;;;;;19.43;17.53;;;3.10;99.90;;;;;;4900306;29;20215;-71
2023/04/05 06:23:06;;;;;;;19.47;17.97;;;3.70;99.90;;;;;;4917578;29;20183;-71
2023/04/05 06:25:32;;;;;;;14.33;12.73;;;4.00;99.90;;;;;;4900506;29;20191;-71
2023/04/05 06:27:58;;;;;;;13.30;11.77;;;4.40;99.90;;;;;;4917116;29;20213;-68
2023/04/05 06:30:23;;;;;;;14.07;12.07;;;4.70;99.90;;;;;;4897784;29;20191;-69
2023/04/05 06:32:53;;;;;;;13.37;11.77;;;4.80;99.90;;;;;;4898366;29;20230;-68
2023/04/05 06:35:20;;;;;;;13.57;12.30;;;4.80;99.90;;;;;;4898435;29;20184;-71
2023/04/05 06:37:46;;;;;;;13.03;11.73;;;5.20;99.90;;;;;;4898075;29;20188;-70
2023/04/05 06:40:13;;;;;;;12.87;11.10;;;5.70;99.90;;;;;;4897937;29;20198;-71
2023/04/05 06:42:38;;;;;;;12.50;10.93;;;5.90;99.90;;;;;;4898583;29;20183;-70
2023/04/05 06:45:04;;;;;;;12.40;10.27;;;6.10;99.90;;;;;;4897621;29;20298;-70
2023/04/05 06:47:38;;;;;;;12.80;11.33;;;6.20;99.90;;;;;;4891772;29;20295;-70
2023/04/05 06:50:06;;;;;;;11.93;10.73;;;6.20;99.90;;;;;;4882153;29;20196;-70
2023/04/05 06:52:32;;;;;;;11.57;10.43;;;6.40;99.90;;;;;;4878062;29;20208;-70
2023/04/05 06:54:58;;;;;;;11.13;10.27;;;6.50;99.90;;;;;;4888376;29;20195;-70
2023/04/05 06:57:24;;;;;;;11.60;10.60;;;6.80;99.90;;;;;;4897273;29;20577;-71
2023/04/05 06:59:51;;;;;;;11.40;10.37;;;7.00;99.90;;;;;;4896530;29;20239;-71
2023/04/05 07:02:17;;;;;;;13.27;9.53;;;7.40;99.90;;;;;;4897077;29;20216;-71
2023/04/05 07:04:43;;;;;;;13.50;9.40;;;7.70;99.90;;;;;;4880847;29;20193;-71
2023/04/05 07:07:09;;;;;;;12.03;9.90;;;8.00;99.90;;;;;;4897960;29;20239;-71
2023/04/05 07:09:36;;;;;;;11.27;9.10;;;7.90;99.90;;;;;;4897521;29;20183;-71
2023/04/05 07:12:03;;;;;;;10.53;9.57;;;7.80;99.90;;;;;;4897945;29;20196;-71
2023/04/05 07:14:30;;;;;;;10.53;9.50;;;8.10;99.90;;;;;;4896705;29;20214;-71
2023/04/05 07:16:55;;;;;;;10.77;9.87;;;8.40;99.90;;;;;;4897876;29;20230;-71
2023/04/05 07:19:21;;;;;;;10.80;9.70;;;8.40;99.90;;;;;;4897500;29;20680;-71
2023/04/05 07:21:48;;;;;;;9.67;8.87;;;8.40;99.60;;;;;;4897651;29;20695;-71
2023/04/05 07:24:13;;;;;;;9.03;8.23;;;8.70;99.20;;;;;;4896845;29;20195;-71
2023/04/05 07:26:39;;;;;;;9.50;8.57;;;9.00;98.60;;;;;;4897824;29;20202;-71
2023/04/05 07:29:07;;;;;;;10.10;8.77;;;8.90;96.50;;;;;;4897298;29;20272;-71
2023/04/05 07:31:33;;;;;;;9.77;8.87;;;8.80;96.40;;;;;;4897635;29;20294;-71
2023/04/05 07:34:00;;;;;;;9.57;8.77;;;9.10;96.20;;;;;;4897561;29;20192;-71
2023/04/05 07:36:26;;;;;;;9.97;9.20;;;9.30;95.60;;;;;;4880949;29;20188;-71
2023/04/05 07:38:53;;;;;;;10.83;9.50;;;9.40;93.70;;;;;;4896221;29;20671;-71
2023/04/05 07:41:19;;;;;;;11.20;9.97;;;9.20;93.90;;;;;;4897496;29;20231;-71
2023/04/05 07:43:45;;;;;;;10.07;9.00;;;9.70;94.30;;;;;;4897546;29;20200;-71
2023/04/05 07:46:11;;;;;;;12.60;11.47;;;10.10;92.60;;;;;;4880818;29;20191;-71
2023/04/05 07:48:37;;;;;;;13.20;12.13;;;10.40;91.30;;;;;;4895247;29;20603;-72
2023/04/05 07:51:07;;;;;;;13.03;12.03;;;10.50;89.60;;;;;;4897268;29;20230;-71
2023/04/05 07:53:34;;;;;;;11.00;10.10;;;9.80;89.50;;;;;;4897158;29;20240;-72
2023/04/05 07:56:04;;;;;;;12.17;10.93;;;9.40;90.90;;;;;;4897279;29;20209;-72
2023/04/05 07:58:31;;;;;;;14.00;12.83;;;9.70;90.40;;;;;;4896923;29;20184;-72
2023/04/05 08:01:03;;;;;;;14.63;13.43;;;9.90;89.80;;;;;;4896101;29;20730;-72
2023/04/05 08:03:31;;;;;;;13.60;12.67;;;10.20;89.60;;;;;;4896012;29;20192;-72
2023/04/05 08:05:57;;;;;;;13.60;12.30;;;10.70;89.70;;;;;;4897228;29;20664;-71
2023/04/05 08:08:26;;;;;;;11.90;10.87;;;10.80;88.10;;;;;;4896627;29;20214;-72
2023/04/05 08:10:51;;;;;;;12.23;11.30;;;10.70;87.00;;;;;;4896837;29;20204;-70
2023/04/05 08:13:17;;;;;;;11.37;10.57;;;10.70;87.20;;;;;;4896970;29;20207;-71
2023/04/05 08:15:43;;;;;;;10.63;9.57;;;11.00;83.70;;;;;;4896847;29;20235;-71
2023/04/05 08:18:09;;;;;;;10.77;8.67;;;11.50;84.00;;;;;;4896928;29;20612;-71
2023/04/05 08:20:37;;;;;;;12.37;10.77;;;11.70;81.10;;;;;;4896744;29;20204;-71
2023/04/05 08:23:06;;;;;;;10.27;8.70;;;11.60;78.80;;;;;;4896891;29;20215;-71
2023/04/05 08:25:32;;;;;;;13.43;12.10;;;11.60;80.30;;;;;;4896692;29;20183;-71
2023/04/05 08:27:58;;;;;;;8.30;7.60;;;11.60;75.90;;;;;;4895491;29;20217;-72
2023/04/05 08:30:24;;;;;;;8.33;7.63;;;11.40;74.10;;;;;;4896631;29;20176;-72
2023/04/05 08:32:50;;;;;;;10.37;7.73;;;11.70;75.80;;;;;;4895663;29;20548;-72
2023/04/05 08:35:16;;;;;;;8.50;7.70;;;12.20;75.80;;;;;;4895523;29;20269;-72
2023/04/05 08:37:42;;;;;;;8.23;7.53;;;12.70;74.20;;;;;;4896804;29;20192;-72
2023/04/05 08:40:08;;;;;;;9.67;7.83;;;12.20;68.80;;;;;;4895207;29;20248;-72
2023/04/05 08:42:43;;;;;;;8.73;8.07;;;11.80;66.40;;;;;;4896914;29;20239;-71
2023/04/05 08:45:11;;;;;;;8.00;7.30;;;11.30;66.50;;;;;;4895612;29;20529;-72
2023/04/05 08:47:40;;;;;;;8.43;7.60;;;11.20;67.30;;;;;;4896594;29;20217;-72
2023/04/05 08:50:09;;;;;;;8.50;7.70;;;11.30;68.00;;;;;;4896094;29;20437;-72
2023/04/05 08:52:37;;;;;;;7.83;7.33;;;11.70;68.30;;;;;;4896309;29;20199;-72
2023/04/05 08:55:04;;;;;;;8.23;7.07;;;11.40;64.80;;;;;;4895265;29;20271;-72
2023/04/05 08:57:31;;;;;;;8.60;7.63;;;11.20;70.00;;;;;;4879411;29;20187;-72
2023/04/05 09:00:00;;;;;;;7.77;7.10;;;11.60;69.90;;;;;;4896027;29;20240;-71
2023/04/05 09:02:27;;;;;;;11.00;10.10;;;11.80;67.60;;;;;;4879420;29;20265;-71
2023/04/05 09:04:53;;;;;;;10.07;9.17;;;11.60;60.60;;;;;;4896189;29;20255;-73
2023/04/05 09:07:20;;;;;;;6.77;6.37;;;11.40;60.90;;;;;;4895201;29;20302;-72
2023/04/05 09:09:52;;;;;;;8.03;7.23;;;10.70;62.70;;;;;;4887303;29;20187;-73
2023/04/05 09:12:23;;;;;;;6.97;6.47;;;10.30;64.50;;;;;;4879725;29;20765;-72
2023/04/05 09:14:50;;;;;;;6.73;6.17;;;10.40;63.60;;;;;;4930185;23;20237;-71
2023/04/05 09:17:20;;;;;;;7.67;7.17;;;10.50;64.10;;;;;;4952158;29;20225;-71
2023/04/05 09:19:49;;;;;;;7.90;7.10;;;10.50;64.60;;;;;;4935439;29;20187;-71
2023/04/05 09:22:17;;;;;;;7.50;6.90;;;10.80;65.60;;;;;;4953040;29;20645;-71
2023/04/05 09:24:45;;;;;;;7.90;7.20;;;11.50;66.20;;;;;;4921689;29;20629;-71
2023/04/05 09:27:11;;;;;;;9.63;8.93;;;12.40;61.90;;;;;;4929634;29;20209;-71
2023/04/05 09:29:39;;;;;;;10.53;9.83;;;12.30;59.80;;;;;;4914759;29;20183;-71
2023/04/05 09:32:07;;;;;;;11.13;10.13;;;12.00;59.50;;;;;;4914560;29;20183;-71
2023/04/05 09:34:36;;;;;;;10.60;10.00;;;12.20;59.80;;;;;;4897745;29;20211;-71
2023/04/05 09:37:11;;;;;;;10.23;9.53;;;12.60;58.70;;;;;;4897940;29;20235;-71
2023/04/05 09:39:37;;;;;;;9.77;9.07;;;12.90;58.80;;;;;;4913891;29;20198;-71
2023/04/05 09:42:11;;;;;;;9.37;8.67;;;13.20;59.00;;;;;;4914503;29;20268;-71
2023/04/05 09:45:06;;;;;;;8.10;7.40;;;13.70;58.50;;;;;;4914533;29;20206;-71
2023/04/05 09:47:35;;;;;;;8.90;8.20;;;13.70;56.90;;;;;;4897993;29;20218;-71
2023/04/05 09:50:05;;;;;;;9.07;8.37;;;13.60;58.10;;;;;;4901432;29;20229;-71
2023/04/05 09:52:32;;;;;;;7.77;7.20;;;13.60;54.90;;;;;;4916123;29;20187;-71
2023/04/05 09:55:01;;;;;;;8.77;8.07;;;14.00;56.20;;;;;;4914087;29;20672;-71
2023/04/05 09:57:28;;;;;;;9.00;8.30;;;13.90;53.00;;;;;;4914644;29;20218;-71
2023/04/05 09:59:54;;;;;;;8.70;8.10;;;13.50;55.10;;;;;;4914313;29;20268;-71
2023/04/05 10:02:23;;;;;;;8.60;7.80;;;13.50;55.50;;;;;;4914439;29;20274;-71
2023/04/05 10:04:50;;;;;;;8.50;7.93;;;13.70;55.30;;;;;;4927272;29;20556;-71
2023/04/05 10:07:18;;;;;;;9.17;8.53;;;13.60;55.40;;;;;;4933173;29;20179;-71
2023/04/05 10:09:47;;;;;;;10.03;9.20;;;14.30;54.00;;;;;;4932389;29;20655;-71
2023/04/05 10:12:24;;;;;;;9.20;8.63;;;14.10;53.70;;;;;;4934314;29;20275;-70
2023/04/05 10:14:50;;;;;;;8.90;8.10;;;13.30;52.50;;;;;;4936848;29;20593;-71
2023/04/05 10:17:26;;;;;;;9.17;8.37;;;13.00;53.50;;;;;;4936485;29;20206;-71
2023/04/05 10:20:05;;;;;;;8.80;8.20;;;13.80;52.30;;;;;;4898539;29;20618;-71
2023/04/05 10:22:39;;;;;;;8.80;8.20;;;13.70;52.50;;;;;;4930442;29;20257;-71
2023/04/05 10:25:20;;;;;;;7.87;7.27;;;13.50;52.80;;;;;;4936449;29;20205;-71
2023/04/05 10:27:54;;;;;;;8.27;7.63;;;13.70;51.60;;;;;;4919559;29;20182;-71
2023/04/05 10:30:23;;;;;;;8.50;7.90;;;13.40;51.80;;;;;;4936228;29;20231;-70
2023/04/05 10:33:02;;;;;;;8.77;8.07;;;13.70;52.10;;;;;;4919507;29;20222;-71
2023/04/05 10:35:37;;;;;;;7.80;7.30;;;14.80;50.70;;;;;;4936379;29;20190;-71
2023/04/05 10:38:18;;;;;;;9.57;8.87;;;14.60;50.50;;;;;;4936276;29;20220;-71
2023/04/05 10:40:47;;;;;;;8.27;7.57;;;15.10;50.10;;;;;;4936364;29;20270;-71
2023/04/05 10:43:22;;;;;;;7.67;7.00;;;15.70;50.60;;;;;;4936569;29;20654;-71
2023/04/05 10:45:52;;;;;;;7.50;6.80;;;16.20;48.30;;;;;;4936410;29;20197;-72
2023/04/05 10:48:45;;;;;;;7.20;6.47;;;16.10;47.40;;;;;;4936026;29;20193;-71
2023/04/05 10:51:12;;;;;;;6.90;6.40;;;15.70;49.80;;;;;;4919222;29;20281;-71
2023/04/05 10:53:39;;;;;;;6.57;5.97;;;15.90;47.80;;;;;;4935978;29;20224;-71
2023/04/05 10:56:06;;;;;;;8.60;6.20;;;16.10;46.80;;;;;;4936134;29;20192;-71
2023/04/05 10:58:34;;;;;;;6.73;6.23;;;15.30;47.70;;;;;;4935576;29;20230;-71
2023/04/05 11:01:00;;;;;;;7.63;6.93;;;15.30;49.40;;;;;;4935879;29;20210;-72
2023/04/05 11:03:47;;;;;;;7.07;6.37;;;15.40;50.50;;;;;;4935808;29;20213;-70
2023/04/05 11:06:34;;;;;;;7.77;7.00;;;15.50;47.50;;;;;;4922965;29;20183;-71
2023/04/05 11:09:14;;;;;;;6.53;6.13;;;15.40;47.50;;;;;;4933224;29;20190;-71
2023/04/05 11:11:51;;;;;;;6.60;6.10;;;14.90;48.90;;;;;;4935927;29;20186;-71
2023/04/05 11:14:19;;;;;;;7.83;6.00;;;14.80;47.70;;;;;;4935723;29;20297;-71
2023/04/05 11:16:53;;;;;;;5.90;5.50;;;15.00;47.50;;;;;;4935787;29;20190;-71
2023/04/05 11:19:19;;;;;;;6.97;6.33;;;15.60;47.40;;;;;;4918571;29;20548;-71
2023/04/05 11:21:45;;;;;;;7.23;6.63;;;16.30;47.00;;;;;;4935546;29;20185;-71
2023/04/05 11:24:14;;;;;;;8.27;7.53;;;16.50;46.30;;;;;;4934584;29;20638;-71
2023/04/05 11:26:46;;;;;;;7.60;6.93;;;17.30;44.10;;;;;;4935647;29;20182;-71
2023/04/05 11:29:14;;;;;;;7.53;6.83;;;17.20;46.70;;;;;;4935491;29;20273;-71
2023/04/05 11:32:10;;;;;;;6.50;6.10;;;17.40;45.90;;;;;;4936288;29;20185;-71
2023/04/05 11:34:36;;;;;;;6.87;6.27;;;18.00;43.50;;;;;;4934718;29;20214;-71
2023/04/05 11:37:02;;;;;;;7.43;6.83;;;17.90;42.30;;;;;;4935178;29;20178;-71
2023/04/05 11:39:29;;;;;;;7.07;6.57;;;17.00;43.00;;;;;;4935174;29;20193;-71
2023/04/05 11:42:03;;;;;;;7.30;6.80;;;16.30;44.20;;;;;;4942394;29;20179;-71
2023/04/05 11:44:46;;;;;;;7.50;6.63;;;16.40;44.50;;;;;;4941555;29;20210;-71
2023/04/05 11:47:16;;;;;;;7.53;6.93;;;16.50;46.00;;;;;;4935153;29;20643;-71
2023/04/05 11:49:42;;;;;;;6.77;6.27;;;17.50;46.40;;;;;;4934663;29;20182;-71
2023/04/05 11:52:16;;;;;;;6.63;6.13;;;17.80;44.40;;;;;;4935045;29;20245;-71
2023/04/05 11:54:45;;;;;;;7.47;6.77;;;17.60;43.20;;;;;;4934925;29;20683;-71
2023/04/05 11:57:22;;;;;;;6.83;6.13;;;16.60;43.70;;;;;;4934924;29;20245;-71
2023/04/05 11:59:52;;;;;;;8.13;7.47;;;16.60;44.30;;;;;;4934512;29;20204;-71
2023/04/05 12:02:18;;;;;;;6.63;6.03;;;16.10;44.60;;;;;;4917942;29;20655;-71
2023/04/05 12:04:52;;;;;;;7.70;7.13;;;16.40;45.20;;;;;;4934717;29;20233;-71
2023/04/05 12:07:19;;;;;;;7.77;7.13;;;15.90;45.00;;;;;;4934756;29;20187;-70
2023/04/05 12:10:07;;;;;;;7.17;6.63;;;16.00;45.50;;;;;;4934474;29;20179;-70
2023/04/05 12:12:38;;;;;;;7.57;7.00;;;17.20;43.90;;;;;;4917906;29;20636;-71
2023/04/05 12:15:07;;;;;;;7.33;6.73;;;17.90;42.40;;;;;;4917911;29;20218;-71
2023/04/05 12:17:42;;;;;;;6.90;6.50;;;18.70;41.90;;;;;;4922225;29;20249;-70
2023/04/05 12:20:09;;;;;;;7.87;7.07;;;19.10;40.60;;;;;;4899142;29;20301;-71
2023/04/05 12:22:40;;;;;;;7.27;6.60;;;18.30;41.60;;;;;;4896756;29;20183;-70
2023/04/05 12:25:07;;;;;;;6.83;6.30;;;18.10;42.40;;;;;;4931779;29;20198;-71
2023/04/05 12:27:33;;;;;;;7.53;6.93;;;18.70;41.90;;;;;;4917279;29;20213;-71
2023/04/05 12:30:17;;;;;;;8.37;7.57;;;19.00;43.10;;;;;;4934027;29;20210;-71
2023/04/05 12:32:50;;;;;;;7.27;6.67;;;18.10;42.40;;;;;;4934225;29;20229;-71
2023/04/05 12:35:23;;;;;;;8.00;7.40;;;18.40;43.50;;;;;;4932004;29;20225;-71
2023/04/05 12:37:50;;;;;;;7.53;6.93;;;18.90;42.10;;;;;;4915516;29;20746;-71
2023/04/05 12:40:20;;;;;;;9.67;8.50;;;19.30;40.80;;;;;;4914907;29;20238;-71
2023/04/05 12:42:46;;;;;;;9.63;8.90;;;20.10;38.70;;;;;;4898405;29;20183;-71
2023/04/05 12:45:12;;;;;;;8.80;8.20;;;20.40;37.80;;;;;;4898439;29;20947;-71
2023/04/05 12:47:57;;;;;;;9.37;8.60;;;20.60;37.60;;;;;;4914985;29;20209;-71
2023/04/05 12:50:30;;;;;;;9.38;8.68;;;21.00;37.30;;;;;;4915109;29;20584;-71
2023/04/05 12:53:03;;;;;;;9.10;8.20;;;20.20;36.80;;;;;;4898260;29;20186;-71
2023/04/05 12:55:30;;;;;;;8.00;7.50;;;19.20;38.10;;;;;;4898070;29;20607;-71
2023/04/05 12:57:58;;;;;;;8.67;8.07;;;19.50;38.30;;;;;;4914952;29;20213;-70
2023/04/05 13:00:26;;;;;;;9.13;8.53;;;19.40;37.80;;;;;;4914431;29;20278;-71
2023/04/05 13:02:54;;;;;;;8.60;8.00;;;19.20;38.80;;;;;;4897912;29;20178;-71
2023/04/05 13:05:25;;;;;;;8.20;7.60;;;19.70;38.20;;;;;;4914973;29;20202;-71
2023/04/05 13:07:52;;;;;;;8.73;8.13;;;19.90;37.40;;;;;;4914948;29;20198;-71
2023/04/05 13:10:23;;;;;;;8.33;7.83;;;19.90;37.50;;;;;;4898001;29;20183;-71
2023/04/05 13:12:49;;;;;;;10.17;9.37;;;20.60;36.50;;;;;;4925128;29;20198;-71
2023/04/05 13:15:16;;;;;;;9.68;9.07;;;20.40;36.50;;;;;;4933855;29;20222;-71
2023/04/05 13:17:44;;;;;;;7.60;7.07;;;20.90;36.10;;;;;;4916569;29;20583;-70
2023/04/05 13:20:11;;;;;;;8.40;7.90;;;20.10;36.30;;;;;;4933484;29;20183;-71
2023/04/05 13:22:37;;;;;;;8.93;8.23;;;18.90;37.90;;;;;;4916654;29;20277;-71
2023/04/05 13:25:04;;;;;;;9.53;8.63;;;19.20;38.50;;;;;;4933332;29;20198;-71
2023/04/05 13:27:30;;;;;;;9.47;8.57;;;19.90;37.70;;;;;;4910186;29;20202;-71
2023/04/05 13:29:55;;;;;;;9.30;8.60;;;20.60;36.20;;;;;;4917766;29;20179;-71
2023/04/05 13:32:21;;;;;;;8.70;8.10;;;20.70;35.30;;;;;;4920219;29;20194;-71
2023/04/05 13:34:47;;;;;;;9.20;8.37;;;20.40;35.70;;;;;;4911516;29;20236;-70
2023/04/05 13:37:14;;;;;;;9.13;8.23;;;20.10;35.90;;;;;;4897072;29;20226;-71
2023/04/05 13:39:40;;;;;;;9.17;8.47;;;20.60;36.50;;;;;;4891657;29;20179;-71
2023/04/05 13:42:06;;;;;;;10.03;9.40;;;20.70;35.10;;;;;;4933203;29;20269;-71
2023/04/05 13:44:32;;;;;;;8.07;7.60;;;20.30;35.60;;;;;;4933194;29;20222;-68
2023/04/05 13:46:58;;;;;;;8.40;7.70;;;20.30;35.80;;;;;;4934181;29;20201;-68
2023/04/05 13:49:23;;;;;;;8.57;7.90;;;20.10;36.10;;;;;;4936367;29;20678;-69
2023/04/05 13:51:49;;;;;;;8.37;7.73;;;19.50;36.50;;;;;;4930661;29;20190;-68
2023/04/05 13:54:15;;;;;;;8.70;7.93;;;19.80;37.60;;;;;;4917883;29;20203;-68
2023/04/05 13:56:41;;;;;;;8.40;7.80;;;20.40;37.50;;;;;;4917841;29;20269;-69
2023/04/05 13:59:06;;;;;;;9.43;8.77;;;20.40;36.20;;;;;;4916850;29;20286;-68
2023/04/05 14:01:33;;;;;;;10.70;10.10;;;20.30;37.30;;;;;;4918056;29;20187;-68
2023/04/05 14:03:59;;;;;;;11.25;10.55;;;20.80;36.30;;;;;;4917651;29;20199;-68
2023/04/05 14:06:25;;;;;;;10.10;9.50;;;21.10;33.80;;;;;;4918034;29;20563;-68
2023/04/05 14:08:54;;;;;;;13.52;12.68;;;21.50;32.70;;;;;;4917227;29;20187;-67
2023/04/05 14:11:23;;;;;;;11.10;10.45;;;21.80;33.90;;;;;;4900667;29;20563;-67
2023/04/05 14:13:50;;;;;;;10.70;10.10;;;21.20;35.40;;;;;;4917529;29;20362;-67
2023/04/05 14:16:16;;;;;;;10.25;9.65;;;20.10;36.70;;;;;;4917441;29;20661;-68
2023/04/05 14:18:41;;;;;;;10.95;10.13;;;20.70;35.40;;;;;;4916747;29;20305;-68
2023/04/05 14:21:07;;;;;;;10.73;10.02;;;20.60;35.80;;;;;;4917371;29;20183;-68
2023/04/05 14:23:33;;;;;;;10.40;9.60;;;20.00;36.80;;;;;;4916862;29;20422;-68
2023/04/05 14:25:59;;;;;;;9.80;9.10;;;20.00;37.20;;;;;;4917354;29;20182;-67
2023/04/05 14:28:25;;;;;;;10.23;9.63;;;20.40;36.80;;;;;;4924058;29;20182;-67
2023/04/05 14:30:51;;;;;;;9.85;9.25;;;20.40;37.10;;;;;;4936278;29;20185;-67
2023/04/05 14:33:16;;;;;;;14.95;13.65;;;20.50;36.90;;;;;;4935877;29;20662;-67
2023/04/05 14:35:43;;;;;;;10.85;10.02;;;20.60;35.10;;;;;;4936114;29;20658;-68
2023/04/05 14:38:08;;;;;;;10.70;10.07;;;20.70;36.40;;;;;;4935981;29;20741;-68
2023/04/05 14:40:34;;;;;;;9.70;9.10;;;20.40;37.50;;;;;;4935676;29;20182;-67
2023/04/05 14:43:00;;;;;;;10.65;9.75;;;19.30;38.00;;;;;;4936027;29;20535;-67
2023/04/05 14:45:27;;;;;;;10.93;10.23;;;20.00;38.70;;;;;;4936198;29;20193;-68
2023/04/05 14:47:53;;;;;;;11.83;10.90;;;21.30;37.00;;;;;;4935800;29;20186;-67
2023/04/05 14:50:19;;;;;;;14.52;13.32;;;21.00;34.90;;;;;;4935634;29;20273;-67
2023/04/05 14:52:45;;;;;;;12.77;11.75;;;21.30;36.10;;;;;;4935478;29;20532;-68
2023/04/05 14:55:15;;;;;;;14.07;13.07;;;21.00;35.10;;;;;;4934542;29;20202;-67
2023/04/05 14:57:41;;;;;;;12.18;11.25;;;20.90;35.40;;;;;;4935417;29;20635;-68
2023/04/05 15:00:09;;;;;;;13.90;13.10;;;21.30;34.70;;;;;;4935416;29;20178;-68
2023/04/05 15:02:38;;;;;;;13.68;12.68;;;22.40;33.80;;;;;;4935435;29;20183;-68
2023/04/05 15:05:05;;;;;;;15.85;14.85;;;23.10;30.80;;;;;;4935449;29;20670;-68
2023/04/05 15:07:31;;;;;;;16.52;15.18;;;23.90;30.50;;;;;;4935909;29;20186;-71
2023/04/05 15:09:57;;;;;;;15.13;14.13;;;23.40;31.50;;;;;;4918236;29;20544;-71
2023/04/05 15:12:23;;;;;;;13.68;12.77;;;23.00;31.20;;;;;;4936055;29;20246;-70
2023/04/05 15:14:53;;;;;;;14.65;13.52;;;21.40;32.20;;;;;;4949536;23;20238;-75
2023/04/05 15:17:20;;;;;;;11.65;10.75;;;19.90;36.50;;;;;;4917827;29;20572;-71
2023/04/05 15:19:45;;;;;;;11.33;10.60;;;19.80;37.70;;;;;;4918271;29;20292;-73
2023/04/05 15:22:12;;;;;;;9.40;8.70;;;18.60;37.90;;;;;;4918574;29;20190;-70
2023/04/05 15:24:42;;;;;;;8.73;8.23;;;18.10;39.20;;;;;;4908210;29;20222;-71
2023/04/05 15:27:08;;;;;;;7.47;7.00;;;16.80;40.60;;;;;;4899582;29;20183;-71
2023/04/05 15:29:34;;;;;;;7.63;7.03;;;15.70;43.10;;;;;;4932215;29;20189;-70
2023/04/05 15:32:01;;;;;;;6.50;6.00;;;15.00;43.30;;;;;;4935064;29;20182;-71
2023/04/05 15:34:28;;;;;;;6.50;5.90;;;14.90;45.20;;;;;;4905405;29;20215;-72
2023/04/05 15:36:54;;;;;;;6.83;6.27;;;14.50;46.10;;;;;;4897814;29;20198;-72
2023/04/05 15:39:21;;;;;;;6.83;6.33;;;13.80;46.70;;;;;;4915829;29;20564;-72
2023/04/05 15:41:47;;;;;;;6.83;6.27;;;13.80;45.90;;;;;;4898620;29;20183;-71
2023/04/05 15:44:13;;;;;;;7.43;6.47;;;13.80;44.70;;;;;;4914988;29;20679;-72